»·PEaware :: N700DK KOTH-KEUG

N700DK :: KOTH-KEUG

FLIGHT INFORMATION

Flight Status: Arrived
Operator: Privately registered:
United States
More flights under this callsign
Pilot: Brendan O. (14500)
Aircraft: CESSNA 340
(C340)
More flights by this aircraft type
Origin: KOTH North Bend Mun
United States
Destination: KEUG Mahlon Sweet
United States
More flights between these airports :: More routes between these airports
Route: +OTH6 OTH V121 EUG
File this flight plan on PilotEdge
Remarks:
Altitude:
(Current/Filed)
5,000ft
Speed:
(Current/Filed)
185kts
Departed: 02-Apr-19 09:15 AM
Arrived: 02-Apr-19 09:56 AM
Distance/Time
Traveled:
61nm/0:41
Distance/Time
To Go:
Arrived

Flight Plot

Page will automatically refresh every two minutes.


Map Options




Map Legend


Flown Route
Filed Route
Departure Airport
Arrival Airport
Navaid (VOR, NDB)
Fix

Horizontal Profiles

Position Reports

Time Latitude Longitude Heading Altitude Ground
Speed
02-Apr-19 08:53 43.414872 -124.244612 330 22ft 0kts
02-Apr-19 08:54 43.414872 -124.244612 330 22ft 0kts
02-Apr-19 08:55 43.414872 -124.244612 330 22ft 0kts
02-Apr-19 08:56 43.414872 -124.244612 330 22ft 0kts
02-Apr-19 08:57 43.414872 -124.244612 330 22ft 0kts
02-Apr-19 08:58 43.414872 -124.244612 330 22ft 0kts
02-Apr-19 08:59 43.414872 -124.244612 330 22ft 0kts
02-Apr-19 09:00 43.414872 -124.244612 330 22ft 0kts
02-Apr-19 09:01 43.414872 -124.244612 330 22ft 0kts
02-Apr-19 09:02 43.414872 -124.244612 330 22ft 0kts
02-Apr-19 09:03 43.414872 -124.244612 330 22ft 0kts
02-Apr-19 09:03 43.414872 -124.244612 330 22ft 0kts
02-Apr-19 09:05 43.414872 -124.244612 330 22ft 0kts
02-Apr-19 09:05 43.415646 -124.244332 328 20ft 10kts
02-Apr-19 09:07 43.418461 -124.248408 239 22ft 12kts
02-Apr-19 09:07 43.417003 -124.251981 241 26ft 16kts
02-Apr-19 09:08 43.414059 -124.259089 243 8ft 14kts
02-Apr-19 09:10 43.414015 -124.259941 324 7ft 0kts
02-Apr-19 09:10 43.414014 -124.259941 323 7ft 0kts
02-Apr-19 09:11 43.414014 -124.259941 323 7ft 0kts
02-Apr-19 09:12 43.414014 -124.259941 323 7ft 0kts
02-Apr-19 09:13 43.414902 -124.260145 61 6ft 0kts
02-Apr-19 09:14 43.422641 -124.242550 43 451ft 104kts
02-Apr-19 09:15 43.427397 -124.271161 242 1632ft 136kts
02-Apr-19 09:16 43.416586 -124.317769 312 2726ft 144kts
02-Apr-19 09:17 43.437331 -124.299928 100 3730ft 143kts
02-Apr-19 09:18 43.426887 -124.238466 104 4777ft 157kts
02-Apr-19 09:19 43.415351 -124.174838 97 5083ft 177kts
02-Apr-19 09:20 43.429178 -124.110898 61 5104ft 184kts
02-Apr-19 09:21 43.456320 -124.077047 30 5178ft 180kts
02-Apr-19 09:22 43.490816 -124.060006 26 5136ft 182kts
02-Apr-19 09:23 43.520554 -124.028943 40 5135ft 183kts
02-Apr-19 09:24 43.547960 -123.993234 41 5135ft 182kts
02-Apr-19 09:25 43.579164 -123.951767 41 5136ft 182kts
02-Apr-19 09:26 43.609913 -123.910883 41 5136ft 182kts
02-Apr-19 09:27 43.636772 -123.875134 41 5136ft 182kts
02-Apr-19 09:28 43.664267 -123.838470 41 5136ft 182kts
02-Apr-19 09:29 43.691219 -123.802460 41 5130ft 175kts
02-Apr-19 09:30 43.719194 -123.765199 42 5128ft 171kts
02-Apr-19 09:31 43.746340 -123.728870 42 5124ft 170kts
02-Apr-19 09:32 43.770731 -123.696267 42 5122ft 168kts
02-Apr-19 09:33 43.791798 -123.668018 42 5121ft 167kts
02-Apr-19 09:34 43.822016 -123.627426 42 5119ft 167kts
02-Apr-19 09:35 43.904862 -123.515843 42 5117ft 167kts
02-Apr-19 09:36 43.948484 -123.456880 42 5117ft 167kts
02-Apr-19 09:37 43.999575 -123.387722 42 5117ft 167kts
02-Apr-19 09:38 44.033016 -123.342133 43 5116ft 161kts
02-Apr-19 09:39 44.073909 -123.336737 353 5116ft 150kts
02-Apr-19 09:40 44.113137 -123.342669 353 5128ft 143kts
02-Apr-19 09:41 44.151901 -123.348485 353 5130ft 143kts
02-Apr-19 09:42 44.189572 -123.354162 353 4692ft 168kts
02-Apr-19 09:43 44.238422 -123.362079 352 4058ft 162kts
02-Apr-19 09:44 44.272503 -123.367779 353 4070ft 150kts
02-Apr-19 09:45 44.306361 -123.373313 356 4073ft 142kts
02-Apr-19 09:46 44.321695 -123.338348 81 3671ft 146kts
02-Apr-19 09:47 44.327459 -123.279173 81 3031ft 139kts
02-Apr-19 09:48 44.329627 -123.222369 129 3025ft 124kts
02-Apr-19 09:49 44.295815 -123.220517 183 3027ft 123kts
02-Apr-19 09:50 44.260585 -123.221025 179 2804ft 137kts
02-Apr-19 09:51 44.227447 -123.220533 179 2173ft 111kts
02-Apr-19 09:52 44.196783 -123.220089 179 1589ft 110kts
02-Apr-19 09:54 44.139176 -123.219244 179 468ft 97kts
02-Apr-19 09:55 44.125516 -123.217961 146 361ft 0kts
02-Apr-19 09:56 44.125136 -123.217641 153 361ft 2kts
02-Apr-19 09:57 44.123407 -123.217030 175 365ft 25kts
02-Apr-19 09:58 44.117861 -123.215552 168 368ft 13kts
02-Apr-19 09:59 44.117866 -123.215217 30 368ft 0kts

Navigation Log

Ident Type
Flight plan parsing failed, navigation log unavailable